<?xml version="1.0" encoding="UTF-8"?>
<gpx xmlns="http://www.topografix.com/GPX/1/1" xmlns:gpsies="http://www.gpsies.com/GPX/1/0" creator="GPSies http://www.gpsies.com - Bauschlott" version="1.1" xmlns:xsi="http://www.w3.org/2001/XMLSchema-instance" xsi:schemaLocation="http://www.topografix.com/GPX/1/1 http://www.topografix.com/GPX/1/1/gpx.xsd http://www.gpsies.com/GPX/1/0 http://www.gpsies.com/gpsies.xsd">
  <metadata>
    <name>Bauschlott</name>
    <copyright author="GPSies.com" />
    <link href="http://www.gpsies.com/">
      <text>Bauschlott on GPSies.com</text>
    </link>
    <time>2010-07-29T20:12:03Z</time>
  </metadata>
  <trk>
    <name>Bauschlott on GPSies.com</name>
    <trkseg>
      <trkpt lat="49.14082850" lon="8.664779660">
        <ele>136.00000</ele>
        <time>2010-07-29T20:12:03Z</time>
      </trkpt>
      <trkpt lat="49.14091000" lon="8.664600000">
        <ele>136.00000</ele>
        <time>2010-07-29T20:12:07Z</time>
      </trkpt>
      <trkpt lat="49.13995000" lon="8.663620000">
        <ele>137.00000</ele>
        <time>2010-07-29T20:12:37Z</time>
      </trkpt>
      <trkpt lat="49.13995000" lon="8.663620000">
        <ele>137.00000</ele>
        <time>2010-07-29T20:12:37Z</time>
      </trkpt>
      <trkpt lat="49.13966000" lon="8.663350000">
        <ele>137.00000</ele>
        <time>2010-07-29T20:12:47Z</time>
      </trkpt>
      <trkpt lat="49.13937000" lon="8.662840000">
        <ele>141.00000</ele>
        <time>2010-07-29T20:12:58Z</time>
      </trkpt>
      <trkpt lat="49.13936000" lon="8.662820000">
        <ele>141.00000</ele>
        <time>2010-07-29T20:12:59Z</time>
      </trkpt>
      <trkpt lat="49.13915000" lon="8.662500000">
        <ele>141.00000</ele>
        <time>2010-07-29T20:13:07Z</time>
      </trkpt>
      <trkpt lat="49.13915000" lon="8.662500000">
        <ele>141.00000</ele>
        <time>2010-07-29T20:13:07Z</time>
      </trkpt>
      <trkpt lat="49.13869000" lon="8.661830000">
        <ele>146.00000</ele>
        <time>2010-07-29T20:13:24Z</time>
      </trkpt>
      <trkpt lat="49.13833680" lon="8.661421530">
        <ele>146.00000</ele>
        <time>2010-07-29T20:13:35Z</time>
      </trkpt>
      <trkpt lat="49.13740320" lon="8.660380840">
        <ele>152.00000</ele>
        <time>2010-07-29T20:14:06Z</time>
      </trkpt>
      <trkpt lat="49.13454630" lon="8.657655710">
        <ele>178.00000</ele>
        <time>2010-07-29T20:15:36Z</time>
      </trkpt>
      <trkpt lat="49.13405490" lon="8.656926150">
        <ele>185.00000</ele>
        <time>2010-07-29T20:15:54Z</time>
      </trkpt>
      <trkpt lat="49.13340910" lon="8.655563590">
        <ele>190.00000</ele>
        <time>2010-07-29T20:16:24Z</time>
      </trkpt>
      <trkpt lat="49.13284750" lon="8.654855480">
        <ele>191.00000</ele>
        <time>2010-07-29T20:16:43Z</time>
      </trkpt>
      <trkpt lat="49.13101520" lon="8.651862140">
        <ele>213.00000</ele>
        <time>2010-07-29T20:17:55Z</time>
      </trkpt>
      <trkpt lat="49.12942860" lon="8.650596140">
        <ele>215.00000</ele>
        <time>2010-07-29T20:18:43Z</time>
      </trkpt>
      <trkpt lat="49.12656420" lon="8.647356030">
        <ele>229.00000</ele>
        <time>2010-07-29T20:20:18Z</time>
      </trkpt>
      <trkpt lat="49.12532150" lon="8.645961280">
        <ele>220.00000</ele>
        <time>2010-07-29T20:20:59Z</time>
      </trkpt>
      <trkpt lat="49.12441580" lon="8.645489210">
        <ele>211.00000</ele>
        <time>2010-07-29T20:21:24Z</time>
      </trkpt>
      <trkpt lat="49.12284300" lon="8.644866940">
        <ele>212.00000</ele>
        <time>2010-07-29T20:22:08Z</time>
      </trkpt>
      <trkpt lat="49.12169850" lon="8.644791840">
        <ele>217.00000</ele>
        <time>2010-07-29T20:22:38Z</time>
      </trkpt>
      <trkpt lat="49.12030820" lon="8.645049330">
        <ele>202.00000</ele>
        <time>2010-07-29T20:23:16Z</time>
      </trkpt>
      <trkpt lat="49.12033630" lon="8.646068570">
        <ele>204.00000</ele>
        <time>2010-07-29T20:23:34Z</time>
      </trkpt>
      <trkpt lat="49.12050490" lon="8.647130720">
        <ele>209.00000</ele>
        <time>2010-07-29T20:23:53Z</time>
      </trkpt>
      <trkpt lat="49.12070150" lon="8.647677890">
        <ele>209.00000</ele>
        <time>2010-07-29T20:24:04Z</time>
      </trkpt>
      <trkpt lat="49.12107360" lon="8.649373050">
        <ele>199.00000</ele>
        <time>2010-07-29T20:24:35Z</time>
      </trkpt>
      <trkpt lat="49.11938140" lon="8.649995320">
        <ele>180.00000</ele>
        <time>2010-07-29T20:25:21Z</time>
      </trkpt>
      <trkpt lat="49.11828590" lon="8.650488850">
        <ele>178.00000</ele>
        <time>2010-07-29T20:25:52Z</time>
      </trkpt>
      <trkpt lat="49.11785060" lon="8.651025290">
        <ele>165.00000</ele>
        <time>2010-07-29T20:26:07Z</time>
      </trkpt>
      <trkpt lat="49.11717650" lon="8.652205460">
        <ele>168.00000</ele>
        <time>2010-07-29T20:26:34Z</time>
      </trkpt>
      <trkpt lat="49.11642510" lon="8.653471460">
        <ele>153.00000</ele>
        <time>2010-07-29T20:27:04Z</time>
      </trkpt>
      <trkpt lat="49.11502060" lon="8.654791110">
        <ele>166.00000</ele>
        <time>2010-07-29T20:27:48Z</time>
      </trkpt>
      <trkpt lat="49.11388290" lon="8.653106680">
        <ele>145.00000</ele>
        <time>2010-07-29T20:28:30Z</time>
      </trkpt>
      <trkpt lat="49.11242920" lon="8.650166980">
        <ele>142.00000</ele>
        <time>2010-07-29T20:29:34Z</time>
      </trkpt>
      <trkpt lat="49.11096850" lon="8.646390430">
        <ele>150.00000</ele>
        <time>2010-07-29T20:30:51Z</time>
      </trkpt>
      <trkpt lat="49.11060330" lon="8.645929090">
        <ele>145.00000</ele>
        <time>2010-07-29T20:31:04Z</time>
      </trkpt>
      <trkpt lat="49.11022400" lon="8.645596500">
        <ele>153.00000</ele>
        <time>2010-07-29T20:31:15Z</time>
      </trkpt>
      <trkpt lat="49.10972540" lon="8.645424840">
        <ele>153.00000</ele>
        <time>2010-07-29T20:31:29Z</time>
      </trkpt>
      <trkpt lat="49.10739360" lon="8.645253180">
        <ele>143.00000</ele>
        <time>2010-07-29T20:32:31Z</time>
      </trkpt>
      <trkpt lat="49.10711970" lon="8.648096320">
        <ele>156.00000</ele>
        <time>2010-07-29T20:33:22Z</time>
      </trkpt>
      <trkpt lat="49.10712670" lon="8.648310890">
        <ele>156.00000</ele>
        <time>2010-07-29T20:33:25Z</time>
      </trkpt>
      <trkpt lat="49.10707050" lon="8.648514740">
        <ele>150.00000</ele>
        <time>2010-07-29T20:33:29Z</time>
      </trkpt>
      <trkpt lat="49.10695110" lon="8.648772230">
        <ele>152.00000</ele>
        <time>2010-07-29T20:33:35Z</time>
      </trkpt>
      <trkpt lat="49.10678250" lon="8.648986810">
        <ele>152.00000</ele>
        <time>2010-07-29T20:33:41Z</time>
      </trkpt>
      <trkpt lat="49.10653670" lon="8.649201390">
        <ele>152.00000</ele>
        <time>2010-07-29T20:33:48Z</time>
      </trkpt>
      <trkpt lat="49.10634010" lon="8.649265760">
        <ele>152.00000</ele>
        <time>2010-07-29T20:33:53Z</time>
      </trkpt>
      <trkpt lat="49.10456300" lon="8.650156250">
        <ele>141.00000</ele>
        <time>2010-07-29T20:34:43Z</time>
      </trkpt>
      <trkpt lat="49.10415560" lon="8.650242090">
        <ele>141.00000</ele>
        <time>2010-07-29T20:34:54Z</time>
      </trkpt>
      <trkpt lat="49.10385360" lon="8.650252810">
        <ele>141.00000</ele>
        <time>2010-07-29T20:35:02Z</time>
      </trkpt>
      <trkpt lat="49.10362180" lon="8.650252810">
        <ele>139.00000</ele>
        <time>2010-07-29T20:35:09Z</time>
      </trkpt>
      <trkpt lat="49.10304580" lon="8.650295730">
        <ele>139.00000</ele>
        <time>2010-07-29T20:35:24Z</time>
      </trkpt>
      <trkpt lat="49.10246980" lon="8.650456660">
        <ele>137.00000</ele>
        <time>2010-07-29T20:35:40Z</time>
      </trkpt>
      <trkpt lat="49.10143730" lon="8.650907270">
        <ele>137.00000</ele>
        <time>2010-07-29T20:36:08Z</time>
      </trkpt>
      <trkpt lat="49.10136000" lon="8.650639050">
        <ele>137.00000</ele>
        <time>2010-07-29T20:36:13Z</time>
      </trkpt>
      <trkpt lat="49.10078400" lon="8.651164770">
        <ele>137.00000</ele>
        <time>2010-07-29T20:36:31Z</time>
      </trkpt>
      <trkpt lat="49.10024310" lon="8.651615380">
        <ele>139.00000</ele>
        <time>2010-07-29T20:36:48Z</time>
      </trkpt>
      <trkpt lat="49.09998320" lon="8.651808500">
        <ele>139.00000</ele>
        <time>2010-07-29T20:36:55Z</time>
      </trkpt>
      <trkpt lat="49.09965300" lon="8.651915780">
        <ele>139.00000</ele>
        <time>2010-07-29T20:37:04Z</time>
      </trkpt>
      <trkpt lat="49.09857120" lon="8.652087450">
        <ele>141.00000</ele>
        <time>2010-07-29T20:37:33Z</time>
      </trkpt>
      <trkpt lat="49.09847990" lon="8.651797770">
        <ele>140.00000</ele>
        <time>2010-07-29T20:37:39Z</time>
      </trkpt>
      <trkpt lat="49.09836750" lon="8.651583190">
        <ele>140.00000</ele>
        <time>2010-07-29T20:37:44Z</time>
      </trkpt>
      <trkpt lat="49.09798110" lon="8.651422260">
        <ele>140.00000</ele>
        <time>2010-07-29T20:37:55Z</time>
      </trkpt>
      <trkpt lat="49.09701170" lon="8.651572460">
        <ele>142.00000</ele>
        <time>2010-07-29T20:38:21Z</time>
      </trkpt>
      <trkpt lat="49.09616170" lon="8.651797770">
        <ele>140.00000</ele>
        <time>2010-07-29T20:38:44Z</time>
      </trkpt>
      <trkpt lat="49.09538190" lon="8.652194730">
        <ele>148.00000</ele>
        <time>2010-07-29T20:39:06Z</time>
      </trkpt>
      <trkpt lat="49.09427190" lon="8.652559510">
        <ele>144.00000</ele>
        <time>2010-07-29T20:39:36Z</time>
      </trkpt>
      <trkpt lat="49.09371680" lon="8.653095960">
        <ele>141.00000</ele>
        <time>2010-07-29T20:39:53Z</time>
      </trkpt>
      <trkpt lat="49.09096280" lon="8.651261320">
        <ele>150.00000</ele>
        <time>2010-07-29T20:41:14Z</time>
      </trkpt>
      <trkpt lat="49.08711240" lon="8.651304240">
        <ele>149.00000</ele>
        <time>2010-07-29T20:42:56Z</time>
      </trkpt>
      <trkpt lat="49.08647300" lon="8.651969430">
        <ele>144.00000</ele>
        <time>2010-07-29T20:43:17Z</time>
      </trkpt>
      <trkpt lat="49.08627630" lon="8.652023070">
        <ele>144.00000</ele>
        <time>2010-07-29T20:43:22Z</time>
      </trkpt>
      <trkpt lat="49.08614980" lon="8.651819220">
        <ele>144.00000</ele>
        <time>2010-07-29T20:43:27Z</time>
      </trkpt>
      <trkpt lat="49.08607250" lon="8.651776310">
        <ele>144.00000</ele>
        <time>2010-07-29T20:43:29Z</time>
      </trkpt>
      <trkpt lat="49.08591090" lon="8.651829950">
        <ele>144.00000</ele>
        <time>2010-07-29T20:43:34Z</time>
      </trkpt>
      <trkpt lat="49.08506070" lon="8.651808500">
        <ele>144.00000</ele>
        <time>2010-07-29T20:43:57Z</time>
      </trkpt>
      <trkpt lat="49.08397150" lon="8.652151820">
        <ele>143.00000</ele>
        <time>2010-07-29T20:44:26Z</time>
      </trkpt>
      <trkpt lat="49.08281910" lon="8.652613160">
        <ele>144.00000</ele>
        <time>2010-07-29T20:44:58Z</time>
      </trkpt>
      <trkpt lat="49.08179310" lon="8.653117410">
        <ele>149.00000</ele>
        <time>2010-07-29T20:45:27Z</time>
      </trkpt>
      <trkpt lat="49.08154720" lon="8.653267620">
        <ele>149.00000</ele>
        <time>2010-07-29T20:45:34Z</time>
      </trkpt>
      <trkpt lat="49.08015580" lon="8.654115200">
        <ele>146.00000</ele>
        <time>2010-07-29T20:46:14Z</time>
      </trkpt>
      <trkpt lat="49.07886980" lon="8.655091520">
        <ele>145.00000</ele>
        <time>2010-07-29T20:46:52Z</time>
      </trkpt>
      <trkpt lat="49.07851840" lon="8.655359740">
        <ele>147.00000</ele>
        <time>2010-07-29T20:47:03Z</time>
      </trkpt>
      <trkpt lat="49.07691600" lon="8.656818860">
        <ele>147.00000</ele>
        <time>2010-07-29T20:47:52Z</time>
      </trkpt>
      <trkpt lat="49.07372530" lon="8.659822940">
        <ele>147.00000</ele>
        <time>2010-07-29T20:49:32Z</time>
      </trkpt>
      <trkpt lat="49.07105440" lon="8.662258380">
        <ele>149.00000</ele>
        <time>2010-07-29T20:50:55Z</time>
      </trkpt>
      <trkpt lat="49.06981740" lon="8.662945030">
        <ele>150.00000</ele>
        <time>2010-07-29T20:51:31Z</time>
      </trkpt>
      <trkpt lat="49.06862950" lon="8.663384910">
        <ele>157.00000</ele>
        <time>2010-07-29T20:52:03Z</time>
      </trkpt>
      <trkpt lat="49.06830620" lon="8.663481470">
        <ele>157.00000</ele>
        <time>2010-07-29T20:52:12Z</time>
      </trkpt>
      <trkpt lat="49.06649260" lon="8.663266890">
        <ele>152.00000</ele>
        <time>2010-07-29T20:53:01Z</time>
      </trkpt>
      <trkpt lat="49.06537490" lon="8.662891380">
        <ele>151.00000</ele>
        <time>2010-07-29T20:53:31Z</time>
      </trkpt>
      <trkpt lat="49.06333630" lon="8.661518090">
        <ele>152.00000</ele>
        <time>2010-07-29T20:54:31Z</time>
      </trkpt>
      <trkpt lat="49.06278100" lon="8.661271330">
        <ele>154.00000</ele>
        <time>2010-07-29T20:54:46Z</time>
      </trkpt>
      <trkpt lat="49.06174760" lon="8.660659790">
        <ele>152.00000</ele>
        <time>2010-07-29T20:55:16Z</time>
      </trkpt>
      <trkpt lat="49.06127660" lon="8.660391560">
        <ele>153.00000</ele>
        <time>2010-07-29T20:55:29Z</time>
      </trkpt>
      <trkpt lat="49.06065790" lon="8.660327190">
        <ele>152.00000</ele>
        <time>2010-07-29T20:55:46Z</time>
      </trkpt>
      <trkpt lat="49.06010960" lon="8.660359380">
        <ele>153.00000</ele>
        <time>2010-07-29T20:56:00Z</time>
      </trkpt>
      <trkpt lat="49.05977910" lon="8.660434480">
        <ele>158.00000</ele>
        <time>2010-07-29T20:56:09Z</time>
      </trkpt>
      <trkpt lat="49.05943460" lon="8.660649060">
        <ele>154.00000</ele>
        <time>2010-07-29T20:56:19Z</time>
      </trkpt>
      <trkpt lat="49.05955420" lon="8.660895820">
        <ele>154.00000</ele>
        <time>2010-07-29T20:56:24Z</time>
      </trkpt>
      <trkpt lat="49.05961740" lon="8.661324970">
        <ele>163.00000</ele>
        <time>2010-07-29T20:56:32Z</time>
      </trkpt>
      <trkpt lat="49.05961740" lon="8.661679020">
        <ele>163.00000</ele>
        <time>2010-07-29T20:56:38Z</time>
      </trkpt>
      <trkpt lat="49.05907610" lon="8.661861410">
        <ele>155.00000</ele>
        <time>2010-07-29T20:56:53Z</time>
      </trkpt>
      <trkpt lat="49.05884410" lon="8.662086720">
        <ele>157.00000</ele>
        <time>2010-07-29T20:57:00Z</time>
      </trkpt>
      <trkpt lat="49.05854180" lon="8.662655350">
        <ele>155.00000</ele>
        <time>2010-07-29T20:57:13Z</time>
      </trkpt>
      <trkpt lat="49.05820430" lon="8.663159600">
        <ele>160.00000</ele>
        <time>2010-07-29T20:57:26Z</time>
      </trkpt>
      <trkpt lat="49.05801450" lon="8.663706770">
        <ele>160.00000</ele>
        <time>2010-07-29T20:57:37Z</time>
      </trkpt>
      <trkpt lat="49.05756450" lon="8.664414880">
        <ele>157.00000</ele>
        <time>2010-07-29T20:57:54Z</time>
      </trkpt>
      <trkpt lat="49.05727630" lon="8.664779660">
        <ele>158.00000</ele>
        <time>2010-07-29T20:58:04Z</time>
      </trkpt>
      <trkpt lat="49.05563810" lon="8.665659420">
        <ele>162.00000</ele>
        <time>2010-07-29T20:58:50Z</time>
      </trkpt>
      <trkpt lat="49.05407020" lon="8.666700120">
        <ele>158.00000</ele>
        <time>2010-07-29T20:59:36Z</time>
      </trkpt>
      <trkpt lat="49.05253040" lon="8.667043440">
        <ele>159.00000</ele>
        <time>2010-07-29T21:00:17Z</time>
      </trkpt>
      <trkpt lat="49.05151080" lon="8.668148510">
        <ele>163.00000</ele>
        <time>2010-07-29T21:00:51Z</time>
      </trkpt>
      <trkpt lat="49.05028730" lon="8.670197720">
        <ele>159.00000</ele>
        <time>2010-07-29T21:01:39Z</time>
      </trkpt>
      <trkpt lat="49.04922550" lon="8.671925060">
        <ele>158.00000</ele>
        <time>2010-07-29T21:02:21Z</time>
      </trkpt>
      <trkpt lat="49.04791060" lon="8.673276900">
        <ele>157.00000</ele>
        <time>2010-07-29T21:03:03Z</time>
      </trkpt>
      <trkpt lat="49.04636350" lon="8.674489250">
        <ele>157.00000</ele>
        <time>2010-07-29T21:03:49Z</time>
      </trkpt>
      <trkpt lat="49.04471800" lon="8.675487040">
        <ele>170.00000</ele>
        <time>2010-07-29T21:04:37Z</time>
      </trkpt>
      <trkpt lat="49.04280510" lon="8.676731580">
        <ele>165.00000</ele>
        <time>2010-07-29T21:05:32Z</time>
      </trkpt>
      <trkpt lat="49.04246050" lon="8.677096360">
        <ele>171.00000</ele>
        <time>2010-07-29T21:05:43Z</time>
      </trkpt>
      <trkpt lat="49.04170800" lon="8.677182190">
        <ele>165.00000</ele>
        <time>2010-07-29T21:06:03Z</time>
      </trkpt>
      <trkpt lat="49.04127190" lon="8.677439680">
        <ele>165.00000</ele>
        <time>2010-07-29T21:06:16Z</time>
      </trkpt>
      <trkpt lat="49.04118750" lon="8.677858110">
        <ele>165.00000</ele>
        <time>2010-07-29T21:06:24Z</time>
      </trkpt>
      <trkpt lat="49.04094840" lon="8.678094140">
        <ele>166.00000</ele>
        <time>2010-07-29T21:06:31Z</time>
      </trkpt>
      <trkpt lat="49.04074450" lon="8.677632800">
        <ele>165.00000</ele>
        <time>2010-07-29T21:06:41Z</time>
      </trkpt>
      <trkpt lat="49.04066010" lon="8.677074900">
        <ele>164.00000</ele>
        <time>2010-07-29T21:06:51Z</time>
      </trkpt>
      <trkpt lat="49.04061080" lon="8.676162950">
        <ele>162.00000</ele>
        <time>2010-07-29T21:07:07Z</time>
      </trkpt>
      <trkpt lat="49.04059680" lon="8.675304650">
        <ele>160.00000</ele>
        <time>2010-07-29T21:07:22Z</time>
      </trkpt>
      <trkpt lat="49.03980200" lon="8.673995730">
        <ele>161.00000</ele>
        <time>2010-07-29T21:07:53Z</time>
      </trkpt>
      <trkpt lat="49.03959100" lon="8.673309080">
        <ele>161.00000</ele>
        <time>2010-07-29T21:08:06Z</time>
      </trkpt>
      <trkpt lat="49.03866270" lon="8.674210300">
        <ele>162.00000</ele>
        <time>2010-07-29T21:08:36Z</time>
      </trkpt>
      <trkpt lat="49.03784680" lon="8.675304650">
        <ele>166.00000</ele>
        <time>2010-07-29T21:09:05Z</time>
      </trkpt>
      <trkpt lat="49.03740370" lon="8.675647970">
        <ele>164.00000</ele>
        <time>2010-07-29T21:09:18Z</time>
      </trkpt>
      <trkpt lat="49.03646820" lon="8.675851820">
        <ele>166.00000</ele>
        <time>2010-07-29T21:09:43Z</time>
      </trkpt>
      <trkpt lat="49.03514590" lon="8.677622070">
        <ele>168.00000</ele>
        <time>2010-07-29T21:10:30Z</time>
      </trkpt>
      <trkpt lat="49.03485750" lon="8.678308720">
        <ele>168.00000</ele>
        <time>2010-07-29T21:10:45Z</time>
      </trkpt>
      <trkpt lat="49.03481530" lon="8.678770060">
        <ele>167.00000</ele>
        <time>2010-07-29T21:10:53Z</time>
      </trkpt>
      <trkpt lat="49.03462540" lon="8.679682010">
        <ele>163.00000</ele>
        <time>2010-07-29T21:11:09Z</time>
      </trkpt>
      <trkpt lat="49.03414710" lon="8.680218450">
        <ele>165.00000</ele>
        <time>2010-07-29T21:11:25Z</time>
      </trkpt>
      <trkpt lat="49.03402050" lon="8.679370880">
        <ele>167.00000</ele>
        <time>2010-07-29T21:11:40Z</time>
      </trkpt>
      <trkpt lat="49.03391500" lon="8.678019040">
        <ele>171.00000</ele>
        <time>2010-07-29T21:12:04Z</time>
      </trkpt>
      <trkpt lat="49.03376730" lon="8.676785230">
        <ele>180.00000</ele>
        <time>2010-07-29T21:12:26Z</time>
      </trkpt>
      <trkpt lat="49.03345780" lon="8.677192920">
        <ele>186.00000</ele>
        <time>2010-07-29T21:12:37Z</time>
      </trkpt>
      <trkpt lat="49.03285990" lon="8.678426740">
        <ele>195.00000</ele>
        <time>2010-07-29T21:13:04Z</time>
      </trkpt>
      <trkpt lat="49.03262070" lon="8.678673500">
        <ele>195.00000</ele>
        <time>2010-07-29T21:13:12Z</time>
      </trkpt>
      <trkpt lat="49.03165000" lon="8.678984640">
        <ele>197.00000</ele>
        <time>2010-07-29T21:13:38Z</time>
      </trkpt>
      <trkpt lat="49.03060890" lon="8.679070470">
        <ele>201.00000</ele>
        <time>2010-07-29T21:14:06Z</time>
      </trkpt>
      <trkpt lat="49.02953970" lon="8.679327960">
        <ele>213.00000</ele>
        <time>2010-07-29T21:14:35Z</time>
      </trkpt>
      <trkpt lat="49.02872360" lon="8.679800030">
        <ele>217.00000</ele>
        <time>2010-07-29T21:14:58Z</time>
      </trkpt>
      <trkpt lat="49.02728850" lon="8.679971690">
        <ele>222.00000</ele>
        <time>2010-07-29T21:15:37Z</time>
      </trkpt>
      <trkpt lat="49.02613480" lon="8.680014610">
        <ele>228.00000</ele>
        <time>2010-07-29T21:16:07Z</time>
      </trkpt>
      <trkpt lat="49.02467150" lon="8.680658340">
        <ele>223.00000</ele>
        <time>2010-07-29T21:16:48Z</time>
      </trkpt>
      <trkpt lat="49.02396800" lon="8.681173320">
        <ele>233.00000</ele>
        <time>2010-07-29T21:17:09Z</time>
      </trkpt>
      <trkpt lat="49.02278600" lon="8.681473730">
        <ele>221.00000</ele>
        <time>2010-07-29T21:17:41Z</time>
      </trkpt>
      <trkpt lat="49.02177290" lon="8.682417860">
        <ele>206.00000</ele>
        <time>2010-07-29T21:18:13Z</time>
      </trkpt>
      <trkpt lat="49.02101300" lon="8.683533660">
        <ele>195.00000</ele>
        <time>2010-07-29T21:18:41Z</time>
      </trkpt>
      <trkpt lat="49.02011240" lon="8.683576580">
        <ele>190.00000</ele>
        <time>2010-07-29T21:19:05Z</time>
      </trkpt>
      <trkpt lat="49.01881780" lon="8.683791160">
        <ele>186.00000</ele>
        <time>2010-07-29T21:19:39Z</time>
      </trkpt>
      <trkpt lat="49.01797350" lon="8.683018680">
        <ele>197.00000</ele>
        <time>2010-07-29T21:20:06Z</time>
      </trkpt>
      <trkpt lat="49.01704470" lon="8.681001660">
        <ele>196.00000</ele>
        <time>2010-07-29T21:20:49Z</time>
      </trkpt>
      <trkpt lat="49.01614400" lon="8.681087490">
        <ele>190.00000</ele>
        <time>2010-07-29T21:21:13Z</time>
      </trkpt>
      <trkpt lat="49.01546850" lon="8.681731220">
        <ele>190.00000</ele>
        <time>2010-07-29T21:21:34Z</time>
      </trkpt>
      <trkpt lat="49.01468040" lon="8.680830000">
        <ele>192.00000</ele>
        <time>2010-07-29T21:22:01Z</time>
      </trkpt>
      <trkpt lat="49.01330120" lon="8.680143350">
        <ele>196.00000</ele>
        <time>2010-07-29T21:22:39Z</time>
      </trkpt>
      <trkpt lat="49.01282270" lon="8.680143350">
        <ele>199.00000</ele>
        <time>2010-07-29T21:22:52Z</time>
      </trkpt>
      <trkpt lat="49.01268200" lon="8.679285040">
        <ele>202.00000</ele>
        <time>2010-07-29T21:23:07Z</time>
      </trkpt>
      <trkpt lat="49.01195010" lon="8.679156300">
        <ele>203.00000</ele>
        <time>2010-07-29T21:23:27Z</time>
      </trkpt>
      <trkpt lat="49.01133080" lon="8.678941720">
        <ele>203.00000</ele>
        <time>2010-07-29T21:23:44Z</time>
      </trkpt>
      <trkpt lat="49.01017670" lon="8.679199210">
        <ele>200.00000</ele>
        <time>2010-07-29T21:24:15Z</time>
      </trkpt>
      <trkpt lat="49.00944490" lon="8.678426740">
        <ele>200.00000</ele>
        <time>2010-07-29T21:24:39Z</time>
      </trkpt>
      <trkpt lat="49.00910710" lon="8.678340910">
        <ele>200.00000</ele>
        <time>2010-07-29T21:24:48Z</time>
      </trkpt>
      <trkpt lat="49.00857220" lon="8.679070470">
        <ele>203.00000</ele>
        <time>2010-07-29T21:25:07Z</time>
      </trkpt>
      <trkpt lat="49.00722100" lon="8.679928770">
        <ele>208.00000</ele>
        <time>2010-07-29T21:25:46Z</time>
      </trkpt>
      <trkpt lat="49.00657350" lon="8.680057520">
        <ele>215.00000</ele>
        <time>2010-07-29T21:26:04Z</time>
      </trkpt>
      <trkpt lat="49.00578530" lon="8.680400840">
        <ele>221.00000</ele>
        <time>2010-07-29T21:26:26Z</time>
      </trkpt>
      <trkpt lat="49.00496890" lon="8.680529590">
        <ele>215.00000</ele>
        <time>2010-07-29T21:26:48Z</time>
      </trkpt>
      <trkpt lat="49.00460290" lon="8.680830000">
        <ele>215.00000</ele>
        <time>2010-07-29T21:26:59Z</time>
      </trkpt>
      <trkpt lat="49.00361750" lon="8.681473730">
        <ele>221.00000</ele>
        <time>2010-07-29T21:27:27Z</time>
      </trkpt>
      <trkpt lat="49.00212540" lon="8.681988710">
        <ele>223.00000</ele>
        <time>2010-07-29T21:28:08Z</time>
      </trkpt>
      <trkpt lat="49.00156230" lon="8.682675360">
        <ele>225.00000</ele>
        <time>2010-07-29T21:28:27Z</time>
      </trkpt>
      <trkpt lat="49.00023910" lon="8.682675360">
        <ele>239.00000</ele>
        <time>2010-07-29T21:29:03Z</time>
      </trkpt>
      <trkpt lat="48.99964780" lon="8.682932850">
        <ele>231.00000</ele>
        <time>2010-07-29T21:29:19Z</time>
      </trkpt>
      <trkpt lat="48.99714190" lon="8.681902880">
        <ele>267.00000</ele>
        <time>2010-07-29T21:30:28Z</time>
      </trkpt>
      <trkpt lat="48.99553700" lon="8.682503700">
        <ele>269.00000</ele>
        <time>2010-07-29T21:31:12Z</time>
      </trkpt>
      <trkpt lat="48.99446700" lon="8.682718270">
        <ele>272.00000</ele>
        <time>2010-07-29T21:31:41Z</time>
      </trkpt>
      <trkpt lat="48.99238320" lon="8.683748240">
        <ele>284.00000</ele>
        <time>2010-07-29T21:32:40Z</time>
      </trkpt>
      <trkpt lat="48.99029940" lon="8.684606550">
        <ele>300.00000</ele>
        <time>2010-07-29T21:33:37Z</time>
      </trkpt>
      <trkpt lat="48.98951090" lon="8.685979840">
        <ele>295.00000</ele>
        <time>2010-07-29T21:34:09Z</time>
      </trkpt>
      <trkpt lat="48.98934190" lon="8.687782280">
        <ele>298.00000</ele>
        <time>2010-07-29T21:34:41Z</time>
      </trkpt>
      <trkpt lat="48.98855340" lon="8.688726420">
        <ele>297.00000</ele>
        <time>2010-07-29T21:35:08Z</time>
      </trkpt>
      <trkpt lat="48.98860980" lon="8.690614700">
        <ele>298.00000</ele>
        <time>2010-07-29T21:35:41Z</time>
      </trkpt>
      <trkpt lat="48.98562450" lon="8.691902160">
        <ele>315.00000</ele>
        <time>2010-07-29T21:37:04Z</time>
      </trkpt>
      <trkpt lat="48.98258280" lon="8.693017950">
        <ele>309.00000</ele>
        <time>2010-07-29T21:38:27Z</time>
      </trkpt>
      <trkpt lat="48.97909030" lon="8.692846290">
        <ele>302.00000</ele>
        <time>2010-07-29T21:40:01Z</time>
      </trkpt>
      <trkpt lat="48.97824530" lon="8.693876260">
        <ele>307.00000</ele>
        <time>2010-07-29T21:40:29Z</time>
      </trkpt>
      <trkpt lat="48.97317490" lon="8.695678710">
        <ele>338.00000</ele>
        <time>2010-07-29T21:42:48Z</time>
      </trkpt>
      <trkpt lat="48.97418900" lon="8.701515190">
        <ele>325.00000</ele>
        <time>2010-07-29T21:44:34Z</time>
      </trkpt>
      <trkpt lat="48.97407630" lon="8.708724970">
        <ele>325.00000</ele>
        <time>2010-07-29T21:46:40Z</time>
      </trkpt>
      <trkpt lat="48.97266780" lon="8.709068290">
        <ele>326.00000</ele>
        <time>2010-07-29T21:47:19Z</time>
      </trkpt>
      <trkpt lat="48.96883650" lon="8.710184090">
        <ele>339.00000</ele>
        <time>2010-07-29T21:49:03Z</time>
      </trkpt>
      <trkpt lat="48.96669530" lon="8.712930670">
        <ele>338.00000</ele>
        <time>2010-07-29T21:50:17Z</time>
      </trkpt>
      <trkpt lat="48.96508940" lon="8.714561460">
        <ele>349.00000</ele>
        <time>2010-07-29T21:51:09Z</time>
      </trkpt>
      <trkpt lat="48.96616000" lon="8.717222210">
        <ele>335.00000</ele>
        <time>2010-07-29T21:52:03Z</time>
      </trkpt>
      <trkpt lat="48.96652630" lon="8.717908850">
        <ele>329.00000</ele>
        <time>2010-07-29T21:52:19Z</time>
      </trkpt>
      <trkpt lat="48.96668830" lon="8.718584770">
        <ele>330.00000</ele>
        <time>2010-07-29T21:52:32Z</time>
      </trkpt>
      <trkpt lat="48.96670240" lon="8.718799350">
        <ele>329.00000</ele>
        <time>2010-07-29T21:52:35Z</time>
      </trkpt>
      <trkpt lat="48.96666720" lon="8.719024650">
        <ele>329.00000</ele>
        <time>2010-07-29T21:52:39Z</time>
      </trkpt>
      <trkpt lat="48.96641360" lon="8.720011710">
        <ele>328.00000</ele>
        <time>2010-07-29T21:52:58Z</time>
      </trkpt>
      <trkpt lat="48.96631500" lon="8.720676890">
        <ele>326.00000</ele>
        <time>2010-07-29T21:53:10Z</time>
      </trkpt>
      <trkpt lat="48.96638540" lon="8.721513740">
        <ele>327.00000</ele>
        <time>2010-07-29T21:53:25Z</time>
      </trkpt>
      <trkpt lat="48.96672350" lon="8.723101610">
        <ele>329.00000</ele>
        <time>2010-07-29T21:53:54Z</time>
      </trkpt>
      <trkpt lat="48.96680800" lon="8.725075720">
        <ele>331.00000</ele>
        <time>2010-07-29T21:54:29Z</time>
      </trkpt>
      <trkpt lat="48.96762510" lon="8.724861140">
        <ele>328.00000</ele>
        <time>2010-07-29T21:54:51Z</time>
      </trkpt>
      <trkpt lat="48.96832940" lon="8.724818220">
        <ele>322.00000</ele>
        <time>2010-07-29T21:55:10Z</time>
      </trkpt>
      <trkpt lat="48.96892100" lon="8.724689480">
        <ele>320.00000</ele>
        <time>2010-07-29T21:55:26Z</time>
      </trkpt>
      <trkpt lat="48.96919570" lon="8.724507090">
        <ele>318.00000</ele>
        <time>2010-07-29T21:55:34Z</time>
      </trkpt>
      <trkpt lat="48.96944920" lon="8.724292510">
        <ele>318.00000</ele>
        <time>2010-07-29T21:55:41Z</time>
      </trkpt>
      <trkpt lat="48.97010430" lon="8.724131580">
        <ele>318.00000</ele>
        <time>2010-07-29T21:55:59Z</time>
      </trkpt>
      <trkpt lat="48.97021690" lon="8.725290290">
        <ele>319.00000</ele>
        <time>2010-07-29T21:56:19Z</time>
      </trkpt>
      <trkpt lat="48.97083670" lon="8.725161550">
        <ele>318.00000</ele>
        <time>2010-07-29T21:56:36Z</time>
      </trkpt>
      <trkpt lat="48.97101980" lon="8.725043530">
        <ele>318.00000</ele>
        <time>2010-07-29T21:56:41Z</time>
      </trkpt>
      <trkpt lat="48.97142130" lon="8.724560730">
        <ele>322.00000</ele>
        <time>2010-07-29T21:56:55Z</time>
      </trkpt>
      <trkpt lat="48.97766780" lon="8.725644350">
        <ele>308.00000</ele>
        <time>2010-07-29T21:59:43Z</time>
      </trkpt>
      <trkpt lat="48.98160410" lon="8.724753850">
        <ele>308.00000</ele>
        <time>2010-07-29T22:01:29Z</time>
      </trkpt>
      <trkpt lat="48.98582170" lon="8.721116780">
        <ele>307.00000</ele>
        <time>2010-07-29T22:03:38Z</time>
      </trkpt>
      <trkpt lat="48.98670180" lon="8.720000980">
        <ele>301.00000</ele>
        <time>2010-07-29T22:04:09Z</time>
      </trkpt>
      <trkpt lat="48.98787750" lon="8.719024650">
        <ele>298.00000</ele>
        <time>2010-07-29T22:04:45Z</time>
      </trkpt>
      <trkpt lat="48.98834930" lon="8.718541860">
        <ele>293.00000</ele>
        <time>2010-07-29T22:05:00Z</time>
      </trkpt>
      <trkpt lat="48.98909550" lon="8.718284360">
        <ele>286.00000</ele>
        <time>2010-07-29T22:05:20Z</time>
      </trkpt>
      <trkpt lat="48.99046840" lon="8.718252180">
        <ele>277.00000</ele>
        <time>2010-07-29T22:05:57Z</time>
      </trkpt>
      <trkpt lat="48.99136950" lon="8.716106410">
        <ele>271.00000</ele>
        <time>2010-07-29T22:06:42Z</time>
      </trkpt>
      <trkpt lat="48.99261560" lon="8.714282510">
        <ele>259.00000</ele>
        <time>2010-07-29T22:07:28Z</time>
      </trkpt>
      <trkpt lat="48.99346740" lon="8.714078660">
        <ele>257.00000</ele>
        <time>2010-07-29T22:07:51Z</time>
      </trkpt>
      <trkpt lat="48.99379120" lon="8.713713880">
        <ele>259.00000</ele>
        <time>2010-07-29T22:08:01Z</time>
      </trkpt>
      <trkpt lat="48.99391790" lon="8.713456390">
        <ele>259.00000</ele>
        <time>2010-07-29T22:08:07Z</time>
      </trkpt>
      <trkpt lat="48.99400240" lon="8.713284730">
        <ele>259.00000</ele>
        <time>2010-07-29T22:08:11Z</time>
      </trkpt>
      <trkpt lat="48.99445990" lon="8.713188170">
        <ele>259.00000</ele>
        <time>2010-07-29T22:08:23Z</time>
      </trkpt>
      <trkpt lat="48.99514980" lon="8.713338370">
        <ele>261.00000</ele>
        <time>2010-07-29T22:08:42Z</time>
      </trkpt>
      <trkpt lat="48.99556510" lon="8.713542220">
        <ele>252.00000</ele>
        <time>2010-07-29T22:08:53Z</time>
      </trkpt>
      <trkpt lat="48.99587490" lon="8.713853350">
        <ele>254.00000</ele>
        <time>2010-07-29T22:09:03Z</time>
      </trkpt>
      <trkpt lat="48.99598050" lon="8.714100120">
        <ele>254.00000</ele>
        <time>2010-07-29T22:09:08Z</time>
      </trkpt>
      <trkpt lat="48.99649430" lon="8.714261050">
        <ele>245.00000</ele>
        <time>2010-07-29T22:09:22Z</time>
      </trkpt>
      <trkpt lat="48.99691670" lon="8.714239590">
        <ele>245.00000</ele>
        <time>2010-07-29T22:09:34Z</time>
      </trkpt>
      <trkpt lat="48.99836670" lon="8.713102340">
        <ele>243.00000</ele>
        <time>2010-07-29T22:10:17Z</time>
      </trkpt>
      <trkpt lat="48.99887350" lon="8.712683910">
        <ele>241.00000</ele>
        <time>2010-07-29T22:10:33Z</time>
      </trkpt>
      <trkpt lat="48.99908470" lon="8.712308400">
        <ele>241.00000</ele>
        <time>2010-07-29T22:10:41Z</time>
      </trkpt>
      <trkpt lat="48.99925360" lon="8.711782690">
        <ele>233.00000</ele>
        <time>2010-07-29T22:10:52Z</time>
      </trkpt>
      <trkpt lat="49.00015460" lon="8.709626190">
        <ele>232.00000</ele>
        <time>2010-07-29T22:11:36Z</time>
      </trkpt>
      <trkpt lat="49.00098520" lon="8.707351680">
        <ele>225.00000</ele>
        <time>2010-07-29T22:12:22Z</time>
      </trkpt>
      <trkpt lat="49.00213950" lon="8.705978390">
        <ele>221.00000</ele>
        <time>2010-07-29T22:13:01Z</time>
      </trkpt>
      <trkpt lat="49.00258990" lon="8.705796000">
        <ele>221.00000</ele>
        <time>2010-07-29T22:13:13Z</time>
      </trkpt>
      <trkpt lat="49.00311080" lon="8.705903290">
        <ele>226.00000</ele>
        <time>2010-07-29T22:13:27Z</time>
      </trkpt>
      <trkpt lat="49.00339930" lon="8.705785270">
        <ele>226.00000</ele>
        <time>2010-07-29T22:13:35Z</time>
      </trkpt>
      <trkpt lat="49.00380050" lon="8.705227370">
        <ele>223.00000</ele>
        <time>2010-07-29T22:13:50Z</time>
      </trkpt>
      <trkpt lat="49.00432840" lon="8.704347610">
        <ele>219.00000</ele>
        <time>2010-07-29T22:14:11Z</time>
      </trkpt>
      <trkpt lat="49.00459580" lon="8.703896990">
        <ele>231.00000</ele>
        <time>2010-07-29T22:14:21Z</time>
      </trkpt>
      <trkpt lat="49.00494070" lon="8.703178160">
        <ele>220.00000</ele>
        <time>2010-07-29T22:14:37Z</time>
      </trkpt>
      <trkpt lat="49.00580640" lon="8.701086040">
        <ele>216.00000</ele>
        <time>2010-07-29T22:15:20Z</time>
      </trkpt>
      <trkpt lat="49.00619350" lon="8.700377940">
        <ele>212.00000</ele>
        <time>2010-07-29T22:15:36Z</time>
      </trkpt>
      <trkpt lat="49.00638350" lon="8.700056070">
        <ele>214.00000</ele>
        <time>2010-07-29T22:15:44Z</time>
      </trkpt>
      <trkpt lat="49.00647500" lon="8.699584000">
        <ele>214.00000</ele>
        <time>2010-07-29T22:15:53Z</time>
      </trkpt>
      <trkpt lat="49.00653830" lon="8.698779340">
        <ele>208.00000</ele>
        <time>2010-07-29T22:16:07Z</time>
      </trkpt>
      <trkpt lat="49.00819220" lon="8.698618410">
        <ele>202.00000</ele>
        <time>2010-07-29T22:16:51Z</time>
      </trkpt>
      <trkpt lat="49.00936040" lon="8.698103420">
        <ele>200.00000</ele>
        <time>2010-07-29T22:17:23Z</time>
      </trkpt>
      <trkpt lat="49.01002900" lon="8.697985410">
        <ele>198.00000</ele>
        <time>2010-07-29T22:17:41Z</time>
      </trkpt>
      <trkpt lat="49.01071860" lon="8.697760100">
        <ele>196.00000</ele>
        <time>2010-07-29T22:18:00Z</time>
      </trkpt>
      <trkpt lat="49.01163340" lon="8.697534790">
        <ele>192.00000</ele>
        <time>2010-07-29T22:18:25Z</time>
      </trkpt>
      <trkpt lat="49.01233010" lon="8.697770830">
        <ele>196.00000</ele>
        <time>2010-07-29T22:18:44Z</time>
      </trkpt>
      <trkpt lat="49.01285080" lon="8.697931760">
        <ele>197.00000</ele>
        <time>2010-07-29T22:18:58Z</time>
      </trkpt>
      <trkpt lat="49.01337160" lon="8.697845930">
        <ele>207.00000</ele>
        <time>2010-07-29T22:19:12Z</time>
      </trkpt>
      <trkpt lat="49.01394860" lon="8.697974680">
        <ele>202.00000</ele>
        <time>2010-07-29T22:19:28Z</time>
      </trkpt>
      <trkpt lat="49.01558110" lon="8.698532580">
        <ele>197.00000</ele>
        <time>2010-07-29T22:20:12Z</time>
      </trkpt>
      <trkpt lat="49.01703060" lon="8.698672050">
        <ele>194.00000</ele>
        <time>2010-07-29T22:20:51Z</time>
      </trkpt>
      <trkpt lat="49.01790310" lon="8.698768610">
        <ele>179.00000</ele>
        <time>2010-07-29T22:21:15Z</time>
      </trkpt>
      <trkpt lat="49.01859270" lon="8.698993920">
        <ele>179.00000</ele>
        <time>2010-07-29T22:21:33Z</time>
      </trkpt>
      <trkpt lat="49.02066120" lon="8.699948780">
        <ele>179.00000</ele>
        <time>2010-07-29T22:22:31Z</time>
      </trkpt>
      <trkpt lat="49.02217390" lon="8.700839280">
        <ele>175.00000</ele>
        <time>2010-07-29T22:23:14Z</time>
      </trkpt>
      <trkpt lat="49.02273680" lon="8.701161140">
        <ele>175.00000</ele>
        <time>2010-07-29T22:23:30Z</time>
      </trkpt>
      <trkpt lat="49.02300410" lon="8.701322070">
        <ele>176.00000</ele>
        <time>2010-07-29T22:23:38Z</time>
      </trkpt>
      <trkpt lat="49.02350360" lon="8.701515190">
        <ele>176.00000</ele>
        <time>2010-07-29T22:23:52Z</time>
      </trkpt>
      <trkpt lat="49.02393280" lon="8.701676130">
        <ele>175.00000</ele>
        <time>2010-07-29T22:24:04Z</time>
      </trkpt>
      <trkpt lat="49.02438300" lon="8.701772680">
        <ele>175.00000</ele>
        <time>2010-07-29T22:24:16Z</time>
      </trkpt>
      <trkpt lat="49.02470670" lon="8.701997990">
        <ele>176.00000</ele>
        <time>2010-07-29T22:24:25Z</time>
      </trkpt>
      <trkpt lat="49.02523430" lon="8.702384230">
        <ele>175.00000</ele>
        <time>2010-07-29T22:24:41Z</time>
      </trkpt>
      <trkpt lat="49.02581820" lon="8.702352040">
        <ele>179.00000</ele>
        <time>2010-07-29T22:24:56Z</time>
      </trkpt>
      <trkpt lat="49.02591670" lon="8.702309130">
        <ele>179.00000</ele>
        <time>2010-07-29T22:24:59Z</time>
      </trkpt>
      <trkpt lat="49.02608560" lon="8.702491520">
        <ele>179.00000</ele>
        <time>2010-07-29T22:25:05Z</time>
      </trkpt>
      <trkpt lat="49.02660620" lon="8.702727550">
        <ele>182.00000</ele>
        <time>2010-07-29T22:25:19Z</time>
      </trkpt>
      <trkpt lat="49.02686640" lon="8.702749010">
        <ele>182.00000</ele>
        <time>2010-07-29T22:25:26Z</time>
      </trkpt>
      <trkpt lat="49.02711270" lon="8.702416410">
        <ele>184.00000</ele>
        <time>2010-07-29T22:25:35Z</time>
      </trkpt>
      <trkpt lat="49.02934270" lon="8.701708310">
        <ele>183.00000</ele>
        <time>2010-07-29T22:26:36Z</time>
      </trkpt>
      <trkpt lat="49.02996880" lon="8.701150410">
        <ele>176.00000</ele>
        <time>2010-07-29T22:26:55Z</time>
      </trkpt>
      <trkpt lat="49.03016570" lon="8.701043120">
        <ele>176.00000</ele>
        <time>2010-07-29T22:27:01Z</time>
      </trkpt>
      <trkpt lat="49.03038380" lon="8.701901430">
        <ele>176.00000</ele>
        <time>2010-07-29T22:27:17Z</time>
      </trkpt>
      <trkpt lat="49.03072850" lon="8.701955080">
        <ele>175.00000</ele>
        <time>2010-07-29T22:27:26Z</time>
      </trkpt>
      <trkpt lat="49.03262070" lon="8.701461550">
        <ele>171.00000</ele>
        <time>2010-07-29T22:28:17Z</time>
      </trkpt>
      <trkpt lat="49.03290910" lon="8.701257700">
        <ele>171.00000</ele>
        <time>2010-07-29T22:28:26Z</time>
      </trkpt>
      <trkpt lat="49.03306390" lon="8.701354260">
        <ele>172.00000</ele>
        <time>2010-07-29T22:28:30Z</time>
      </trkpt>
      <trkpt lat="49.03333820" lon="8.701719040">
        <ele>172.00000</ele>
        <time>2010-07-29T22:28:40Z</time>
      </trkpt>
      <trkpt lat="49.03348590" lon="8.702008720">
        <ele>172.00000</ele>
        <time>2010-07-29T22:28:46Z</time>
      </trkpt>
      <trkpt lat="49.03378130" lon="8.702845570">
        <ele>167.00000</ele>
        <time>2010-07-29T22:29:03Z</time>
      </trkpt>
      <trkpt lat="49.03408380" lon="8.703671690">
        <ele>167.00000</ele>
        <time>2010-07-29T22:29:19Z</time>
      </trkpt>
      <trkpt lat="49.03424560" lon="8.703725330">
        <ele>167.00000</ele>
        <time>2010-07-29T22:29:24Z</time>
      </trkpt>
      <trkpt lat="49.03430180" lon="8.703564400">
        <ele>167.00000</ele>
        <time>2010-07-29T22:29:27Z</time>
      </trkpt>
      <trkpt lat="49.03608840" lon="8.701204060">
        <ele>172.00000</ele>
        <time>2010-07-29T22:30:30Z</time>
      </trkpt>
      <trkpt lat="49.03684100" lon="8.700217000">
        <ele>168.00000</ele>
        <time>2010-07-29T22:30:57Z</time>
      </trkpt>
      <trkpt lat="49.03708010" lon="8.699712750">
        <ele>168.00000</ele>
        <time>2010-07-29T22:31:07Z</time>
      </trkpt>
      <trkpt lat="49.03731230" lon="8.699197760">
        <ele>168.00000</ele>
        <time>2010-07-29T22:31:18Z</time>
      </trkpt>
      <trkpt lat="49.03742480" lon="8.699144120">
        <ele>168.00000</ele>
        <time>2010-07-29T22:31:22Z</time>
      </trkpt>
      <trkpt lat="49.03746000" lon="8.698736420">
        <ele>169.00000</ele>
        <time>2010-07-29T22:31:29Z</time>
      </trkpt>
      <trkpt lat="49.03741070" lon="8.698296540">
        <ele>169.00000</ele>
        <time>2010-07-29T22:31:37Z</time>
      </trkpt>
      <trkpt lat="49.03736150" lon="8.698060510">
        <ele>169.00000</ele>
        <time>2010-07-29T22:31:41Z</time>
      </trkpt>
      <trkpt lat="49.03706610" lon="8.697792290">
        <ele>169.00000</ele>
        <time>2010-07-29T22:31:50Z</time>
      </trkpt>
      <trkpt lat="49.03662300" lon="8.697202200">
        <ele>169.00000</ele>
        <time>2010-07-29T22:32:06Z</time>
      </trkpt>
      <trkpt lat="49.03639090" lon="8.696719400">
        <ele>169.00000</ele>
        <time>2010-07-29T22:32:16Z</time>
      </trkpt>
      <trkpt lat="49.03633460" lon="8.696408270">
        <ele>169.00000</ele>
        <time>2010-07-29T22:32:22Z</time>
      </trkpt>
      <trkpt lat="49.03583520" lon="8.690840000">
        <ele>167.00000</ele>
        <time>2010-07-29T22:34:00Z</time>
      </trkpt>
      <trkpt lat="49.03563120" lon="8.689970970">
        <ele>167.00000</ele>
        <time>2010-07-29T22:34:16Z</time>
      </trkpt>
      <trkpt lat="49.03538500" lon="8.689080470">
        <ele>166.00000</ele>
        <time>2010-07-29T22:34:33Z</time>
      </trkpt>
      <trkpt lat="49.03513180" lon="8.687589160">
        <ele>164.00000</ele>
        <time>2010-07-29T22:35:00Z</time>
      </trkpt>
      <trkpt lat="49.03493490" lon="8.686151500">
        <ele>165.00000</ele>
        <time>2010-07-29T22:35:26Z</time>
      </trkpt>
      <trkpt lat="49.03499820" lon="8.685271730">
        <ele>164.00000</ele>
        <time>2010-07-29T22:35:41Z</time>
      </trkpt>
      <trkpt lat="49.03501230" lon="8.684821120">
        <ele>164.00000</ele>
        <time>2010-07-29T22:35:49Z</time>
      </trkpt>
      <trkpt lat="49.03493490" lon="8.683673140">
        <ele>163.00000</ele>
        <time>2010-07-29T22:36:09Z</time>
      </trkpt>
      <trkpt lat="49.03468870" lon="8.682096000">
        <ele>164.00000</ele>
        <time>2010-07-29T22:36:38Z</time>
      </trkpt>
      <trkpt lat="49.03435110" lon="8.681441540">
        <ele>163.00000</ele>
        <time>2010-07-29T22:36:52Z</time>
      </trkpt>
      <trkpt lat="49.03424560" lon="8.680658340">
        <ele>164.00000</ele>
        <time>2010-07-29T22:37:06Z</time>
      </trkpt>
      <trkpt lat="49.03420340" lon="8.680282830">
        <ele>165.00000</ele>
        <time>2010-07-29T22:37:13Z</time>
      </trkpt>
      <trkpt lat="49.03440730" lon="8.680111160">
        <ele>165.00000</ele>
        <time>2010-07-29T22:37:19Z</time>
      </trkpt>
    </trkseg>
  </trk>
</gpx>

